createdAt,value
2019-03-11T00:02:16.351Z,96.70
2019-03-11T00:04:49.880Z,96.60
2019-03-11T00:07:24.231Z,96.60
2019-03-11T00:09:57.910Z,96.60
2019-03-11T00:12:34.735Z,96.60
2019-03-11T00:15:09.922Z,96.50
2019-03-11T00:17:43.263Z,96.50
2019-03-11T00:20:16.640Z,96.50
2019-03-11T00:22:49.960Z,96.60
2019-03-11T00:25:24.455Z,96.60
2019-03-11T00:27:57.946Z,96.40
2019-03-11T00:30:31.799Z,96.80
2019-03-11T00:33:05.173Z,96.40
2019-03-11T00:35:39.631Z,96.40
2019-03-11T00:38:13.218Z,96.40
2019-03-11T00:40:47.023Z,96.20
2019-03-11T00:43:21.457Z,96.30
2019-03-11T00:45:55.191Z,96.20
2019-03-11T00:48:30.294Z,96.00
2019-03-11T00:51:03.991Z,95.80
2019-03-11T00:53:43.487Z,95.60
2019-03-11T00:56:15.107Z,94.70
2019-03-11T00:58:48.475Z,95.70
2019-03-11T01:01:22.241Z,95.80
2019-03-11T01:03:55.479Z,95.80
2019-03-11T01:06:29.818Z,95.80
2019-03-11T01:09:03.124Z,95.40
2019-03-11T01:11:37.932Z,95.50
2019-03-11T01:14:11.246Z,92.10
2019-03-11T01:16:44.979Z,94.30
2019-03-11T01:19:19.324Z,95.10
2019-03-11T01:21:52.895Z,95.10
2019-03-11T01:24:26.316Z,95.20
2019-03-11T01:26:59.789Z,94.90
2019-03-11T01:29:33.479Z,94.90
2019-03-11T01:32:07.564Z,94.70
2019-03-11T01:34:40.925Z,94.60
2019-03-11T01:37:14.702Z,94.50
2019-03-11T01:39:48.333Z,94.40
2019-03-11T01:42:22.677Z,87.10
2019-03-11T01:44:56.378Z,82.50
2019-03-11T01:47:30.604Z,91.00
2019-03-11T01:50:04.209Z,92.30
2019-03-11T01:52:38.039Z,85.20
2019-03-11T01:55:13.472Z,78.50
2019-03-11T01:57:47.179Z,92.10
2019-03-11T02:00:21.100Z,80.10
2019-03-11T02:02:54.842Z,92.00
2019-03-11T02:05:28.288Z,87.70
2019-03-11T02:08:01.676Z,93.50
2019-03-11T02:10:35.257Z,93.50
2019-03-11T02:13:13.794Z,93.70
2019-03-11T02:15:48.495Z,93.60
2019-03-11T02:18:21.688Z,90.80
2019-03-11T02:20:55.535Z,89.10
2019-03-11T02:23:28.850Z,72.60
2019-03-11T02:26:02.535Z,91.30
2019-03-11T02:28:35.739Z,77.60
2019-03-11T02:31:09.581Z,80.90
2019-03-11T02:33:43.139Z,81.70
2019-03-11T02:36:16.926Z,88.40
2019-03-11T02:38:50.631Z,77.40
2019-03-11T02:41:24.128Z,73.40
2019-03-11T02:43:57.676Z,78.60
2019-03-11T02:46:33.205Z,68.90
2019-03-11T02:49:07.694Z,81.20
2019-03-11T02:51:41.563Z,67.00
2019-03-11T02:54:14.999Z,64.80
2019-03-11T02:56:49.162Z,64.20
2019-03-11T02:59:22.574Z,86.20
2019-03-11T03:02:08.822Z,73.80
2019-03-11T03:04:43.759Z,68.40
2019-03-11T03:07:17.695Z,81.10
2019-03-11T03:09:51.011Z,81.70
2019-03-11T03:12:24.908Z,85.00
2019-03-11T03:14:58.117Z,69.10
2019-03-11T03:17:31.815Z,64.80
2019-03-11T03:20:06.890Z,62.90
2019-03-11T03:22:40.353Z,69.70
2019-03-11T03:25:14.955Z,75.30
2019-03-11T03:27:48.740Z,77.70
2019-03-11T03:30:22.585Z,78.20
2019-03-11T03:32:56.469Z,82.90
2019-03-11T03:35:29.729Z,82.70
2019-03-11T03:38:04.683Z,82.60
2019-03-11T03:40:47.063Z,80.50
2019-03-11T03:43:21.360Z,67.40
2019-03-11T03:45:58.572Z,82.80
2019-03-11T03:48:35.515Z,64.80
2019-03-11T03:51:11.894Z,65.20
2019-03-11T03:53:46.894Z,71.60
2019-03-11T03:56:20.359Z,63.60
2019-03-11T03:58:54.268Z,63.40
2019-03-11T04:01:28.941Z,62.10
2019-03-11T04:04:03.587Z,62.90
2019-03-11T04:06:36.882Z,66.50
2019-03-11T04:09:17.002Z,62.60
2019-03-11T04:11:53.508Z,59.50
2019-03-11T04:14:27.544Z,58.70
2019-03-11T04:17:00.955Z,59.30
2019-03-11T04:19:35.235Z,74.90
2019-03-11T04:22:17.099Z,78.20
2019-03-11T04:24:54.398Z,77.50
2019-03-11T04:27:40.498Z,61.10
2019-03-11T04:30:19.246Z,72.10
2019-03-11T04:32:53.000Z,76.70
2019-03-11T04:35:26.789Z,76.50
2019-03-11T04:38:00.624Z,68.80
2019-03-11T04:40:37.111Z,66.90
2019-03-11T04:43:12.606Z,57.70
2019-03-11T04:45:46.021Z,70.10
2019-03-11T04:48:19.728Z,65.30
2019-03-11T04:50:53.382Z,58.90
2019-03-11T04:53:26.568Z,65.10
2019-03-11T04:56:00.224Z,58.30
2019-03-11T04:58:34.618Z,73.00
2019-03-11T05:01:08.236Z,61.30
2019-03-11T05:03:46.333Z,75.60
2019-03-11T05:06:20.301Z,76.00
2019-03-11T05:08:54.018Z,76.30
2019-03-11T05:11:27.340Z,75.40
2019-03-11T05:14:00.901Z,61.40
2019-03-11T05:16:34.381Z,75.60
2019-03-11T05:19:08.037Z,68.70
2019-03-11T05:21:41.621Z,60.00
2019-03-11T05:24:14.976Z,74.10
2019-03-11T05:26:48.307Z,74.10
2019-03-11T05:29:21.494Z,73.60
2019-03-11T05:31:57.379Z,74.40
2019-03-11T05:34:30.581Z,73.40
2019-03-11T05:37:06.900Z,71.40
2019-03-11T05:39:40.212Z,71.50
2019-03-11T05:42:14.170Z,70.50
2019-03-11T05:44:48.361Z,70.50
2019-03-11T05:47:23.187Z,70.10
2019-03-11T05:49:57.488Z,70.20
2019-03-11T05:52:32.824Z,69.70
2019-03-11T05:55:07.907Z,67.70
2019-03-11T05:57:42.836Z,68.80
2019-03-11T06:00:22.959Z,67.60
2019-03-11T06:02:56.422Z,54.00
2019-03-11T06:05:31.520Z,60.70
2019-03-11T06:08:05.055Z,66.60
2019-03-11T06:10:39.980Z,66.90
2019-03-11T06:13:13.655Z,51.90
2019-03-11T06:15:47.707Z,52.70
2019-03-11T06:18:26.970Z,62.60
2019-03-11T06:21:17.331Z,59.60
2019-03-11T06:23:51.037Z,61.40
2019-03-11T06:26:28.386Z,60.50
2019-03-11T06:29:07.045Z,60.50
2019-03-11T06:31:41.608Z,61.20
2019-03-11T06:34:16.381Z,58.50
2019-03-11T06:36:50.895Z,63.40
2019-03-11T06:39:24.644Z,61.80
2019-03-11T06:41:58.631Z,62.70
2019-03-11T06:44:31.878Z,55.10
2019-03-11T06:47:05.467Z,63.10
2019-03-11T06:49:40.439Z,62.40
2019-03-11T06:52:13.653Z,50.80
2019-03-11T06:54:46.883Z,53.40
2019-03-11T06:57:20.583Z,61.60
2019-03-11T06:59:55.180Z,63.20
2019-03-11T07:02:30.002Z,63.00
2019-03-11T07:05:03.275Z,64.50
2019-03-11T07:07:36.908Z,65.50
2019-03-11T07:10:12.796Z,61.60
2019-03-11T07:12:47.351Z,55.70
2019-03-11T07:15:21.608Z,54.70
2019-03-11T07:18:09.790Z,53.50
2019-03-11T07:20:46.232Z,52.90
2019-03-11T07:23:19.991Z,53.50
2019-03-11T07:26:01.289Z,59.60
2019-03-11T07:28:34.937Z,64.10
2019-03-11T07:31:08.461Z,63.80
2019-03-11T07:33:41.872Z,57.90
2019-03-11T07:36:15.118Z,63.80
2019-03-11T07:38:49.199Z,64.40
2019-03-11T07:41:22.419Z,53.30
2019-03-11T07:43:55.767Z,63.80
2019-03-11T07:46:29.275Z,62.20
2019-03-11T07:49:02.619Z,61.50
2019-03-11T07:51:36.023Z,50.50
2019-03-11T07:54:09.695Z,49.30
2019-03-11T07:56:43.166Z,56.10
2019-03-11T07:59:17.858Z,61.10
2019-03-11T08:01:51.402Z,60.40
2019-03-11T08:04:24.802Z,60.90
2019-03-11T08:06:58.484Z,61.50
2019-03-11T08:09:37.746Z,61.80
2019-03-11T08:12:07.528Z,49.80
2019-03-11T08:14:41.064Z,49.80
2019-03-11T08:17:14.468Z,60.30
2019-03-11T08:19:47.989Z,56.40
2019-03-11T08:22:21.282Z,51.80
2019-03-11T08:24:55.030Z,61.70
2019-03-11T08:27:28.795Z,63.40
2019-03-11T08:30:02.560Z,54.40
2019-03-11T08:32:40.963Z,59.60
2019-03-11T08:35:14.880Z,61.80
2019-03-11T08:37:48.787Z,65.20
2019-03-11T08:40:22.938Z,65.70
2019-03-11T08:42:56.824Z,66.10
2019-03-11T08:45:30.163Z,66.50
2019-03-11T08:48:04.439Z,67.30
2019-03-11T08:50:37.852Z,67.90
2019-03-11T08:53:11.606Z,68.30
2019-03-11T08:55:54.036Z,68.70
2019-03-11T08:58:28.091Z,69.20
2019-03-11T09:01:12.546Z,69.50
2019-03-11T09:03:47.929Z,70.00
2019-03-11T09:06:20.828Z,64.40
2019-03-11T09:08:54.705Z,69.70
2019-03-11T09:11:28.728Z,70.20
2019-03-11T09:14:02.477Z,64.50
2019-03-11T09:16:35.827Z,70.60
2019-03-11T09:19:09.462Z,65.40
2019-03-11T09:21:46.004Z,71.00
2019-03-11T09:24:21.143Z,71.10
2019-03-11T09:26:56.279Z,70.40
2019-03-11T09:29:30.863Z,71.20
2019-03-11T09:32:05.045Z,71.30
2019-03-11T09:34:38.763Z,71.90
2019-03-11T09:37:12.546Z,72.00
2019-03-11T09:39:45.775Z,72.30
2019-03-11T09:42:22.335Z,72.50
2019-03-11T09:44:55.564Z,72.70
2019-03-11T09:47:32.459Z,72.60
2019-03-11T09:50:08.283Z,73.40
2019-03-11T09:52:41.788Z,73.60
2019-03-11T09:55:24.216Z,74.00
2019-03-11T09:58:01.207Z,74.30
2019-03-11T10:00:39.065Z,74.60
2019-03-11T10:03:12.847Z,74.80
2019-03-11T10:05:46.559Z,75.20
2019-03-11T10:08:28.554Z,76.10
2019-03-11T10:11:10.036Z,74.50
2019-03-11T10:13:47.338Z,76.10
2019-03-11T10:16:22.096Z,76.50
2019-03-11T10:18:56.670Z,76.60
2019-03-11T10:21:43.504Z,77.10
2019-03-11T10:24:19.690Z,77.30
2019-03-11T10:26:53.204Z,77.50
2019-03-11T10:29:26.544Z,77.70
2019-03-11T10:32:00.537Z,78.10
2019-03-11T10:34:34.802Z,78.30
2019-03-11T10:37:09.251Z,74.60
2019-03-11T10:39:43.566Z,75.70
2019-03-11T10:42:18.912Z,78.60
2019-03-11T10:44:52.173Z,77.80
2019-03-11T10:47:25.598Z,78.20
2019-03-11T10:50:02.318Z,76.70
2019-03-11T10:52:36.132Z,79.20
2019-03-11T10:55:19.073Z,77.00
2019-03-11T10:57:56.217Z,79.40
2019-03-11T11:00:32.884Z,79.40
2019-03-11T11:03:06.583Z,78.50
2019-03-11T11:05:39.834Z,79.50
2019-03-11T11:08:16.301Z,79.80
2019-03-11T11:10:53.948Z,79.70
2019-03-11T11:13:27.506Z,79.90
2019-03-11T11:16:02.901Z,80.30
2019-03-11T11:18:37.577Z,80.50
2019-03-11T11:21:10.825Z,80.60
2019-03-11T11:24:24.569Z,81.30
2019-03-11T11:30:46.406Z,81.20
2019-03-11T11:33:22.066Z,81.00
2019-03-11T11:35:56.427Z,80.80
2019-03-11T11:41:33.444Z,81.50
2019-03-11T11:44:06.699Z,81.80
2019-03-11T11:46:40.415Z,82.30
2019-03-11T11:49:13.887Z,82.80
2019-03-11T11:51:47.623Z,82.50
2019-03-11T11:54:20.927Z,83.00
2019-03-11T11:56:54.849Z,83.20
2019-03-11T11:59:28.142Z,84.00
2019-03-11T12:02:04.060Z,83.10
2019-03-11T12:04:50.824Z,83.70
2019-03-11T12:07:19.383Z,84.20
2019-03-11T12:09:52.858Z,84.10
2019-03-11T12:12:39.503Z,84.80
2019-03-11T12:15:13.792Z,84.70
2019-03-11T12:17:47.602Z,85.10
2019-03-11T12:20:31.863Z,85.40
2019-03-11T12:23:05.808Z,85.40
2019-03-11T12:25:39.576Z,85.50
2019-03-11T12:28:18.168Z,85.60
2019-03-11T12:30:51.324Z,86.60
2019-03-11T12:33:33.700Z,86.40
2019-03-11T12:36:08.742Z,86.00
2019-03-11T12:38:42.772Z,86.00
2019-03-11T12:41:17.372Z,86.20
2019-03-11T12:43:53.460Z,86.20
2019-03-11T12:46:26.811Z,86.50
2019-03-11T12:49:00.172Z,86.50
2019-03-11T12:51:33.354Z,86.30
2019-03-11T12:54:07.151Z,86.40
2019-03-11T12:56:41.789Z,87.10
2019-03-11T12:59:15.409Z,87.10
2019-03-11T13:01:48.780Z,87.70
2019-03-11T13:04:23.115Z,87.70
2019-03-11T13:06:56.704Z,87.80
2019-03-11T13:09:30.860Z,88.60
2019-03-11T13:12:05.151Z,88.50
2019-03-11T13:14:39.874Z,88.60
2019-03-11T13:17:13.535Z,88.90
2019-03-11T13:19:48.992Z,89.00
2019-03-11T13:22:21.837Z,88.80
2019-03-11T13:24:56.370Z,89.20
2019-03-11T13:27:29.909Z,89.00
2019-03-11T13:30:04.569Z,89.00
2019-03-11T13:33:13.626Z,89.10
2019-03-11T13:35:56.845Z,88.70
2019-03-11T13:38:42.456Z,88.80
2019-03-11T13:41:22.813Z,88.60
2019-03-11T13:43:56.761Z,89.30
2019-03-11T13:46:30.354Z,89.00
2019-03-11T13:49:07.674Z,89.00
2019-03-11T13:51:43.246Z,89.30
2019-03-11T13:54:17.331Z,89.90
2019-03-11T13:56:50.528Z,90.00
2019-03-11T13:59:24.743Z,90.20
2019-03-11T14:01:58.075Z,90.40
2019-03-11T14:04:41.936Z,90.40
2019-03-11T14:07:17.444Z,90.60
2019-03-11T14:09:52.762Z,90.70
2019-03-11T14:12:27.368Z,90.90
2019-03-11T14:15:01.613Z,91.00
2019-03-11T14:17:42.305Z,91.10
2019-03-11T14:20:24.435Z,91.20
2019-03-11T14:23:00.445Z,91.20
2019-03-11T14:25:34.195Z,91.20
2019-03-11T14:28:08.713Z,91.10
2019-03-11T14:30:42.923Z,91.30
2019-03-11T14:33:17.642Z,91.30
2019-03-11T14:35:55.480Z,91.30
2019-03-11T14:38:33.345Z,91.40
2019-03-11T14:41:07.713Z,91.40
2019-03-11T14:43:41.021Z,91.80
2019-03-11T14:46:14.939Z,91.70
2019-03-11T14:48:54.440Z,91.60
2019-03-11T14:51:35.088Z,91.60
2019-03-11T14:54:08.647Z,91.80
2019-03-11T14:56:42.587Z,92.00
2019-03-11T14:59:18.469Z,91.90
2019-03-11T15:01:52.244Z,91.90
2019-03-11T15:04:25.604Z,92.10
2019-03-11T15:07:00.056Z,92.00
2019-03-11T15:09:33.368Z,92.20
2019-03-11T15:12:10.464Z,92.10
2019-03-11T15:14:43.857Z,92.30
2019-03-11T15:17:17.504Z,92.30
2019-03-11T15:19:50.739Z,92.10
2019-03-11T15:22:24.832Z,92.60
2019-03-11T15:25:33.661Z,92.50
2019-03-11T15:27:49.400Z,92.40
2019-03-11T15:30:26.336Z,92.60
2019-03-11T15:33:00.677Z,92.60
2019-03-11T15:35:39.370Z,92.70
2019-03-11T15:38:12.979Z,92.80
2019-03-11T15:40:53.037Z,92.30
2019-03-11T15:43:33.066Z,92.70
2019-03-11T15:46:07.719Z,92.90
2019-03-11T15:48:41.414Z,92.90
2019-03-11T15:51:17.544Z,93.00
2019-03-11T15:53:52.152Z,93.10
2019-03-11T15:56:29.509Z,93.00
2019-03-11T15:59:03.279Z,93.30
2019-03-11T16:01:36.563Z,93.10
2019-03-11T16:04:12.677Z,93.10
2019-03-11T16:06:45.952Z,93.20
2019-03-11T16:09:21.981Z,93.30
2019-03-11T16:11:55.439Z,93.20
2019-03-11T16:14:29.856Z,93.50
2019-03-11T16:17:10.052Z,93.40
2019-03-11T16:19:45.829Z,93.50
2019-03-11T16:22:23.387Z,93.80
2019-03-11T16:25:04.154Z,93.90
2019-03-11T16:27:38.495Z,94.00
2019-03-11T16:30:27.261Z,93.90
2019-03-11T16:33:02.957Z,94.30
2019-03-11T16:35:38.198Z,94.20
2019-03-11T16:38:13.947Z,94.20
2019-03-11T16:40:47.947Z,94.20
2019-03-11T16:43:21.235Z,94.20
2019-03-11T16:45:55.721Z,94.30
2019-03-11T16:48:33.397Z,94.50
2019-03-11T16:51:10.418Z,94.60
2019-03-11T16:53:43.131Z,94.70
2019-03-11T16:56:18.001Z,94.50
2019-03-11T16:58:51.252Z,94.60
2019-03-11T17:01:25.229Z,94.70
2019-03-11T17:03:58.630Z,94.90
2019-03-11T17:06:34.191Z,95.10
2019-03-11T17:09:08.712Z,95.10
2019-03-11T17:11:43.826Z,95.10
2019-03-11T17:14:17.201Z,95.10
2019-03-11T17:16:50.954Z,95.20
2019-03-11T17:19:24.337Z,95.10
2019-03-11T17:21:59.065Z,95.10
2019-03-11T17:24:32.371Z,95.10
2019-03-11T17:27:12.835Z,95.30
2019-03-11T17:29:43.355Z,95.30
2019-03-11T17:32:17.000Z,95.20
2019-03-11T17:34:50.912Z,95.30
2019-03-11T17:37:28.205Z,95.40
2019-03-11T17:40:01.234Z,95.40
2019-03-11T17:42:36.944Z,95.30
2019-03-11T17:45:12.885Z,95.30
2019-03-11T17:47:47.932Z,95.20
2019-03-11T17:50:25.672Z,95.20
2019-03-11T17:52:59.042Z,95.20
2019-03-11T17:55:32.639Z,95.20
2019-03-11T17:58:06.082Z,95.30
2019-03-11T18:00:54.996Z,95.30
2019-03-11T18:03:24.209Z,95.50
2019-03-11T18:05:57.850Z,95.40
2019-03-11T18:08:31.300Z,95.30
2019-03-11T18:11:04.895Z,95.30
2019-03-11T18:13:38.190Z,95.30
2019-03-11T18:16:12.097Z,95.30
2019-03-11T18:18:45.403Z,95.40
2019-03-11T18:21:19.260Z,95.20
2019-03-11T18:23:52.756Z,95.40
2019-03-11T18:26:26.530Z,95.30
2019-03-11T18:28:59.958Z,95.40
2019-03-11T18:31:34.101Z,95.50
2019-03-11T18:34:07.478Z,95.50
2019-03-11T18:36:40.826Z,95.50
2019-03-11T18:39:14.221Z,95.40
2019-03-11T18:41:48.045Z,95.50
2019-03-11T18:44:21.283Z,95.50
2019-03-11T18:46:55.258Z,95.50
2019-03-11T18:49:28.488Z,95.50
2019-03-11T18:52:02.325Z,95.80
2019-03-11T18:54:36.885Z,95.80
2019-03-11T18:57:10.512Z,95.90
2019-03-11T18:59:44.549Z,96.20
2019-03-11T19:02:18.269Z,95.70
2019-03-11T19:04:51.448Z,95.70
2019-03-11T19:07:24.993Z,95.80
2019-03-11T19:09:58.333Z,95.90
2019-03-11T19:12:33.345Z,95.70
2019-03-11T19:15:07.728Z,95.70
2019-03-11T19:17:41.154Z,95.80
2019-03-11T19:20:21.896Z,95.90
2019-03-11T19:22:55.736Z,96.00
2019-03-11T19:25:29.071Z,95.90
2019-03-11T19:28:02.881Z,95.90
2019-03-11T19:30:36.777Z,96.00
2019-03-11T19:33:11.209Z,95.90
2019-03-11T19:35:45.270Z,95.90
2019-03-11T19:38:19.167Z,95.90
2019-03-11T19:40:52.668Z,95.90
2019-03-11T19:43:26.364Z,96.20
2019-03-11T19:46:00.940Z,96.10
2019-03-11T19:48:35.103Z,96.20
2019-03-11T19:51:08.479Z,96.10
2019-03-11T19:53:42.044Z,96.00
2019-03-11T19:56:15.681Z,96.10
2019-03-11T19:58:49.401Z,96.00
2019-03-11T20:01:23.288Z,96.00
2019-03-11T20:03:56.932Z,96.20
2019-03-11T20:06:30.757Z,96.20
2019-03-11T20:09:05.576Z,96.50
2019-03-11T20:11:40.171Z,96.20
2019-03-11T20:14:14.262Z,96.20
2019-03-11T20:16:47.757Z,96.30
2019-03-11T20:19:21.500Z,96.30
2019-03-11T20:21:54.902Z,96.30
2019-03-11T20:24:31.141Z,96.30
2019-03-11T20:27:05.138Z,96.70
2019-03-11T20:29:40.164Z,96.70
2019-03-11T20:32:13.590Z,96.30
2019-03-11T20:34:47.425Z,96.40
2019-03-11T20:37:21.523Z,96.50
2019-03-11T20:39:55.483Z,96.70
2019-03-11T20:42:28.769Z,96.80
2019-03-11T20:45:03.106Z,96.80
2019-03-11T20:47:37.487Z,96.90
2019-03-11T20:50:13.206Z,96.90
2019-03-11T20:52:46.623Z,97.10
2019-03-11T20:55:22.142Z,97.20
2019-03-11T20:57:55.593Z,97.20
2019-03-11T21:00:30.175Z,97.20
2019-03-11T21:03:03.624Z,97.20
2019-03-11T21:05:42.178Z,97.10
2019-03-11T21:08:15.546Z,97.20
2019-03-11T21:10:49.323Z,97.20
2019-03-11T21:13:23.285Z,97.20
2019-03-11T21:15:57.598Z,97.30
2019-03-11T21:18:31.126Z,97.20
2019-03-11T21:21:05.534Z,97.30
2019-03-11T21:23:39.038Z,97.30
2019-03-11T21:26:13.141Z,97.30
2019-03-11T21:28:46.468Z,97.40
2019-03-11T21:31:20.650Z,97.30
2019-03-11T21:33:58.436Z,97.30
2019-03-11T21:36:29.163Z,97.30
2019-03-11T21:39:03.001Z,97.40
2019-03-11T21:41:39.291Z,97.50
2019-03-11T21:44:12.766Z,97.30
2019-03-11T21:46:46.524Z,97.40
2019-03-11T21:49:21.606Z,97.40
2019-03-11T21:51:55.458Z,97.30
2019-03-11T21:54:29.393Z,97.30
2019-03-11T21:57:03.502Z,97.20
2019-03-11T21:59:37.526Z,97.30
2019-03-11T22:02:11.594Z,97.40
2019-03-11T22:04:45.325Z,97.50
2019-03-11T22:07:19.206Z,97.40
2019-03-11T22:09:52.687Z,97.40
2019-03-11T22:12:26.392Z,97.30
2019-03-11T22:15:00.170Z,97.40
2019-03-11T22:17:35.511Z,97.20
2019-03-11T22:20:11.374Z,97.00
2019-03-11T22:22:44.590Z,97.30
2019-03-11T22:25:19.545Z,97.40
2019-03-11T22:27:53.575Z,97.20
2019-03-11T22:30:27.297Z,97.20
2019-03-11T22:33:00.816Z,97.10
2019-03-11T22:35:34.791Z,97.20
2019-03-11T22:38:08.243Z,97.20
2019-03-11T22:40:42.959Z,97.20
2019-03-11T22:43:16.166Z,97.10
2019-03-11T22:45:49.854Z,97.30
2019-03-11T22:48:23.087Z,97.20
2019-03-11T22:50:57.022Z,97.30
2019-03-11T22:53:32.464Z,97.30
2019-03-11T22:56:06.502Z,97.20
2019-03-11T22:58:40.186Z,97.20
2019-03-11T23:01:14.564Z,97.30
2019-03-11T23:03:50.789Z,97.30
2019-03-11T23:06:24.258Z,97.40
2019-03-11T23:08:57.986Z,97.40
2019-03-11T23:11:32.321Z,97.40
2019-03-11T23:14:05.908Z,97.30
2019-03-11T23:16:40.236Z,97.30
2019-03-11T23:19:13.662Z,97.40
2019-03-11T23:21:47.325Z,97.40
2019-03-11T23:24:20.958Z,97.50
2019-03-11T23:26:54.422Z,97.50
2019-03-11T23:29:28.497Z,97.30
2019-03-11T23:32:03.178Z,97.30
2019-03-11T23:34:37.272Z,97.30
2019-03-11T23:37:11.512Z,97.40
2019-03-11T23:39:44.939Z,97.20
2019-03-11T23:42:18.889Z,97.30
2019-03-11T23:44:52.771Z,97.20
2019-03-11T23:47:26.887Z,97.30
2019-03-11T23:50:00.744Z,97.20
2019-03-11T23:52:35.091Z,97.20
2019-03-11T23:55:10.506Z,97.10
2019-03-11T23:57:45.897Z,97.20
